createdAt,value
2022-12-11T00:00:38.472Z,98689.13
2022-12-11T00:03:04.982Z,98689.25
2022-12-11T00:05:31.384Z,98690.91
2022-12-11T00:07:57.935Z,98681.63
2022-12-11T00:10:24.850Z,98679.47
2022-12-11T00:12:51.230Z,98684.91
2022-12-11T00:15:17.655Z,98688.53
2022-12-11T00:17:44.155Z,98684.72
2022-12-11T00:20:11.069Z,98671.88
2022-12-11T00:22:37.429Z,98676.44
2022-12-11T00:25:04.248Z,98680.75
2022-12-11T00:27:30.570Z,98665.53
2022-12-11T00:29:57.079Z,98678.00
2022-12-11T00:32:23.463Z,98686.91
2022-12-11T00:34:49.790Z,98687.84
2022-12-11T00:37:16.313Z,98673.91
2022-12-11T00:39:42.773Z,98674.63
2022-12-11T00:42:09.438Z,98676.00
2022-12-11T00:44:36.003Z,98679.47
2022-12-11T00:47:02.981Z,98675.22
2022-12-11T00:49:29.642Z,98674.34
2022-12-11T00:51:55.969Z,98680.31
2022-12-11T00:54:22.372Z,98670.94
2022-12-11T00:56:48.926Z,98685.63
2022-12-11T00:59:15.305Z,98696.50
2022-12-11T01:01:41.713Z,98691.28
2022-12-11T01:04:08.224Z,98691.53
2022-12-11T01:06:34.652Z,98667.31
2022-12-11T01:09:01.061Z,98698.59
2022-12-11T01:11:27.738Z,98712.06
2022-12-11T01:13:54.129Z,98708.22
2022-12-11T01:16:20.657Z,98709.41
2022-12-11T01:18:47.068Z,98711.28
2022-12-11T01:21:13.914Z,98707.94
2022-12-11T01:23:40.588Z,98713.09
2022-12-11T01:26:09.769Z,98719.25
2022-12-11T01:28:36.550Z,98720.91
2022-12-11T01:31:03.328Z,98718.78
2022-12-11T01:33:29.719Z,98700.63
2022-12-11T01:35:56.046Z,98701.78
2022-12-11T01:38:22.461Z,98721.34
2022-12-11T01:40:51.132Z,98712.09
2022-12-11T01:43:18.060Z,98718.22
2022-12-11T01:45:49.384Z,98716.47
2022-12-11T01:48:22.653Z,98718.25
2022-12-11T01:50:52.177Z,98710.69
2022-12-11T01:53:24.991Z,98724.47
2022-12-11T01:55:54.946Z,98713.19
2022-12-11T01:58:24.800Z,98722.47
2022-12-11T02:00:53.016Z,98716.31
2022-12-11T02:03:19.719Z,98708.84
2022-12-11T02:05:46.115Z,98698.66
2022-12-11T02:08:12.623Z,98716.22
2022-12-11T02:11:03.796Z,98724.91
2022-12-11T02:13:38.074Z,98718.06
2022-12-11T02:16:26.476Z,98713.72
2022-12-11T02:19:02.831Z,98712.94
2022-12-11T02:21:38.212Z,98717.28
2022-12-11T02:24:07.409Z,98710.56
2022-12-11T02:26:53.780Z,98717.38
2022-12-11T02:29:26.241Z,98706.41
2022-12-11T02:32:17.365Z,98705.03
2022-12-11T02:34:49.091Z,98712.81
2022-12-11T02:37:20.414Z,98715.53
2022-12-11T02:39:50.597Z,98709.25
2022-12-11T02:42:19.247Z,98717.78
2022-12-11T02:44:48.620Z,98707.72
2022-12-11T02:47:17.387Z,98711.00
2022-12-11T02:49:49.279Z,98701.19
2022-12-11T02:52:20.935Z,98702.16
2022-12-11T02:54:49.604Z,98699.72
2022-12-11T02:57:34.024Z,98695.47
2022-12-11T03:00:00.541Z,98691.94
2022-12-11T03:02:27.344Z,98692.84
2022-12-11T03:04:53.953Z,98687.56
2022-12-11T03:07:27.519Z,98693.63
2022-12-11T03:09:54.430Z,98693.03
2022-12-11T03:12:27.462Z,98694.38
2022-12-11T03:14:54.275Z,98693.88
2022-12-11T03:17:26.993Z,98693.97
2022-12-11T03:20:00.684Z,98684.84
2022-12-11T03:22:44.968Z,98693.09
2022-12-11T03:25:19.113Z,98699.91
2022-12-11T03:27:57.255Z,98668.75
2022-12-11T03:30:28.773Z,98700.00
2022-12-11T03:33:09.128Z,98696.50
2022-12-11T03:35:48.935Z,98672.69
2022-12-11T03:38:21.091Z,98676.09
2022-12-11T03:40:51.546Z,98685.56
2022-12-11T03:43:21.203Z,98696.06
2022-12-11T03:45:50.548Z,98707.19
2022-12-11T03:48:18.615Z,98701.28
2022-12-11T03:50:48.151Z,98698.72
2022-12-11T03:53:14.985Z,98698.59
2022-12-11T03:55:41.999Z,98691.97
2022-12-11T03:58:08.536Z,98693.69
2022-12-11T04:00:35.001Z,98701.16
2022-12-11T04:03:01.402Z,98697.16
2022-12-11T04:05:27.698Z,98708.28
2022-12-11T04:07:54.263Z,98692.84
2022-12-11T04:10:20.723Z,98692.06
2022-12-11T04:12:47.105Z,98700.53
2022-12-11T04:15:13.826Z,98697.88
2022-12-11T04:17:40.173Z,98702.06
2022-12-11T04:20:07.628Z,98690.03
2022-12-11T04:22:33.965Z,98704.66
2022-12-11T04:25:01.643Z,98700.66
2022-12-11T04:27:28.014Z,98687.84
2022-12-11T04:29:54.610Z,98704.16
2022-12-11T04:32:20.924Z,98692.34
2022-12-11T04:34:47.446Z,98689.03
2022-12-11T04:37:13.834Z,98691.22
2022-12-11T04:39:40.195Z,98673.97
2022-12-11T04:42:06.578Z,98687.75
2022-12-11T04:44:33.673Z,98684.69
2022-12-11T04:47:00.102Z,98683.06
2022-12-11T04:49:26.665Z,98687.06
2022-12-11T04:51:53.347Z,98675.28
2022-12-11T04:54:19.679Z,98660.88
2022-12-11T04:56:46.359Z,98679.69
2022-12-11T04:59:12.892Z,98669.00
2022-12-11T05:01:39.587Z,98671.91
2022-12-11T05:04:06.293Z,98680.41
2022-12-11T05:06:32.940Z,98682.97
2022-12-11T05:08:59.338Z,98683.13
2022-12-11T05:11:25.728Z,98686.75
2022-12-11T05:13:52.116Z,98684.00
2022-12-11T05:16:18.552Z,98683.22
2022-12-11T05:18:45.628Z,98676.34
2022-12-11T05:21:14.155Z,98687.22
2022-12-11T05:23:42.192Z,98694.47
2022-12-11T05:26:12.751Z,98690.22
2022-12-11T05:28:41.368Z,98687.59
2022-12-11T05:31:14.530Z,98687.31
2022-12-11T05:33:40.997Z,98684.59
2022-12-11T05:36:08.524Z,98690.50
2022-12-11T05:38:35.345Z,98666.94
2022-12-11T05:41:07.593Z,98677.47
2022-12-11T05:43:36.203Z,98679.34
2022-12-11T05:46:27.908Z,98680.69
2022-12-11T05:48:57.350Z,98667.59
2022-12-11T05:51:24.258Z,98658.59
2022-12-11T05:53:52.948Z,98680.13
2022-12-11T05:56:25.386Z,98677.56
2022-12-11T05:58:52.977Z,98666.28
2022-12-11T06:01:25.399Z,98672.31
2022-12-11T06:03:53.058Z,98668.63
2022-12-11T06:06:19.710Z,98659.38
2022-12-11T06:08:46.403Z,98668.94
2022-12-11T06:11:13.877Z,98662.78
2022-12-11T06:13:40.683Z,98669.53
2022-12-11T06:16:08.480Z,98651.84
2022-12-11T06:18:40.167Z,98668.88
2022-12-11T06:21:25.380Z,98667.28
2022-12-11T06:23:54.182Z,98661.50
2022-12-11T06:26:21.642Z,98669.22
2022-12-11T06:28:48.997Z,98677.66
2022-12-11T06:31:15.808Z,98672.06
2022-12-11T06:33:43.057Z,98667.84
2022-12-11T06:36:12.759Z,98673.06
2022-12-11T06:38:39.273Z,98662.81
2022-12-11T06:41:07.866Z,98675.22
2022-12-11T06:43:36.529Z,98678.44
2022-12-11T06:46:07.882Z,98681.06
2022-12-11T06:48:34.505Z,98667.44
2022-12-11T06:51:05.787Z,98667.81
2022-12-11T06:53:32.245Z,98665.47
2022-12-11T06:56:04.009Z,98680.97
2022-12-11T06:58:30.568Z,98677.72
2022-12-11T07:00:57.353Z,98656.00
2022-12-11T07:03:23.935Z,98667.13
2022-12-11T07:05:50.621Z,98654.88
2022-12-11T07:08:17.514Z,98680.69
2022-12-11T07:10:44.214Z,98681.59
2022-12-11T07:13:11.544Z,98676.72
2022-12-11T07:15:40.502Z,98680.84
2022-12-11T07:18:07.009Z,98669.88
2022-12-11T07:20:33.628Z,98680.94
2022-12-11T07:23:00.022Z,98690.19
2022-12-11T07:25:26.394Z,98672.34
2022-12-11T07:27:52.741Z,98674.91
2022-12-11T07:30:19.138Z,98678.25
2022-12-11T07:32:45.477Z,98676.56
2022-12-11T07:35:12.129Z,98677.63
2022-12-11T07:37:41.193Z,98677.53
2022-12-11T07:40:08.450Z,98661.47
2022-12-11T07:42:35.149Z,98650.22
2022-12-11T07:45:01.777Z,98656.44
2022-12-11T07:47:28.109Z,98659.78
2022-12-11T07:49:54.422Z,98632.63
2022-12-11T07:52:20.953Z,98638.78
2022-12-11T07:54:47.314Z,98659.31
2022-12-11T07:57:14.360Z,98646.63
2022-12-11T07:59:40.851Z,98657.50
2022-12-11T08:02:09.065Z,98659.13
2022-12-11T08:04:35.608Z,98640.69
2022-12-11T08:07:01.943Z,98658.78
2022-12-11T08:09:28.264Z,98664.06
2022-12-11T08:11:54.984Z,98666.69
2022-12-11T08:14:21.384Z,98658.97
2022-12-11T08:16:49.562Z,98675.91
2022-12-11T08:19:16.731Z,98666.41
2022-12-11T08:21:43.531Z,98661.31
2022-12-11T08:24:10.110Z,98650.78
2022-12-11T08:26:37.065Z,98668.63
2022-12-11T08:29:03.675Z,98659.75
2022-12-11T08:31:30.466Z,98663.22
2022-12-11T08:33:57.903Z,98659.91
2022-12-11T08:36:25.262Z,98659.78
2022-12-11T08:38:54.922Z,98624.91
2022-12-11T08:41:23.790Z,98669.84
2022-12-11T08:43:50.686Z,98663.88
2022-12-11T08:46:17.052Z,98649.59
2022-12-11T08:48:43.859Z,98665.44
2022-12-11T08:51:15.905Z,98661.94
2022-12-11T08:53:43.247Z,98635.00
2022-12-11T08:56:15.658Z,98657.94
2022-12-11T08:58:42.648Z,98663.00
2022-12-11T09:01:11.144Z,98665.56
2022-12-11T09:03:38.838Z,98667.16
2022-12-11T09:06:11.354Z,98675.50
2022-12-11T09:08:38.101Z,98679.06
2022-12-11T09:11:10.486Z,98667.00
2022-12-11T09:13:37.854Z,98672.97
2022-12-11T09:16:10.428Z,98677.00
2022-12-11T09:18:38.271Z,98676.91
2022-12-11T09:21:09.609Z,98680.78
2022-12-11T09:23:36.431Z,98685.41
2022-12-11T09:26:10.648Z,98687.09
2022-12-11T09:28:41.358Z,98678.19
2022-12-11T09:31:13.895Z,98680.50
2022-12-11T09:33:40.708Z,98692.53
2022-12-11T09:36:08.979Z,98693.81
2022-12-11T09:38:36.280Z,98693.72
2022-12-11T09:41:17.198Z,98691.94
2022-12-11T09:44:16.201Z,98687.84
2022-12-11T09:46:43.352Z,98684.50
2022-12-11T09:49:25.751Z,98674.97
2022-12-11T09:52:17.747Z,98665.84
2022-12-11T09:54:50.036Z,98684.50
2022-12-11T09:57:37.477Z,98679.59
2022-12-11T10:00:26.331Z,98684.28
2022-12-11T10:03:11.786Z,98679.66
2022-12-11T10:06:04.569Z,98677.06
2022-12-11T10:08:34.302Z,98676.13
2022-12-11T10:11:32.448Z,98673.53
2022-12-11T10:14:10.485Z,98668.19
2022-12-11T10:16:49.587Z,98666.91
2022-12-11T10:19:29.070Z,98649.16
2022-12-11T10:21:56.494Z,98659.31
2022-12-11T10:25:10.050Z,98652.16
2022-12-11T10:27:34.445Z,98662.34
2022-12-11T10:30:17.505Z,98655.97
2022-12-11T10:33:06.539Z,98649.03
2022-12-11T10:35:42.382Z,98640.53
2022-12-11T10:38:30.026Z,98644.00
2022-12-11T10:41:11.855Z,98637.81
2022-12-11T10:43:42.888Z,98630.56
2022-12-11T10:46:17.616Z,98630.22
2022-12-11T10:48:56.216Z,98627.13
2022-12-11T10:51:30.855Z,98622.22
2022-12-11T10:54:07.184Z,98627.00
2022-12-11T10:56:37.404Z,98616.56
2022-12-11T10:59:04.073Z,98613.75
2022-12-11T11:01:32.519Z,98605.00
2022-12-11T11:04:04.109Z,98601.63
2022-12-11T11:06:30.652Z,98599.84
2022-12-11T11:08:58.534Z,98599.41
2022-12-11T11:11:34.289Z,98599.44
2022-12-11T11:14:21.123Z,98593.19
2022-12-11T11:16:50.146Z,98587.44
2022-12-11T11:19:32.634Z,98590.94
2022-12-11T11:22:02.536Z,98601.56
2022-12-11T11:24:36.806Z,98598.50
2022-12-11T11:27:13.522Z,98596.41
2022-12-11T11:29:41.427Z,98598.94
2022-12-11T11:32:17.760Z,98596.78
2022-12-11T11:34:44.140Z,98599.19
2022-12-11T11:37:46.443Z,98592.06
2022-12-11T11:40:36.942Z,98592.78
2022-12-11T11:43:19.246Z,98592.53
2022-12-11T11:45:53.489Z,98587.19
2022-12-11T11:48:58.615Z,98584.25
2022-12-11T11:51:32.047Z,98592.34
2022-12-11T11:54:02.970Z,98600.13
2022-12-11T11:56:35.020Z,98602.38
2022-12-11T11:59:17.747Z,98596.69
2022-12-11T12:01:44.188Z,98587.28
2022-12-11T12:04:11.310Z,98583.09
2022-12-11T12:07:02.789Z,98583.97
2022-12-11T12:09:52.872Z,98584.25
2022-12-11T12:12:50.325Z,98586.00
2022-12-11T12:15:35.793Z,98581.06
2022-12-11T12:18:13.974Z,98570.25
2022-12-11T12:20:54.647Z,98574.13
2022-12-11T12:23:36.885Z,98570.69
2022-12-11T12:26:17.170Z,98579.28
2022-12-11T12:28:55.690Z,98582.78
2022-12-11T12:31:50.994Z,98582.66
2022-12-11T12:34:31.860Z,98571.03
2022-12-11T12:37:21.559Z,98570.75
2022-12-11T12:39:53.525Z,98570.69
2022-12-11T12:42:34.123Z,98572.25
2022-12-11T12:45:05.351Z,98572.59
2022-12-11T12:47:35.506Z,98565.00
2022-12-11T12:50:03.909Z,98558.75
2022-12-11T12:52:38.944Z,98569.63
2022-12-11T12:55:19.243Z,98558.06
2022-12-11T12:57:57.250Z,98574.28
2022-12-11T13:00:35.476Z,98575.44
2022-12-11T13:03:13.398Z,98550.06
2022-12-11T13:05:43.200Z,98569.44
2022-12-11T13:08:11.020Z,98572.34
2022-12-11T13:10:40.000Z,98556.28
2022-12-11T13:13:32.547Z,98561.13
2022-12-11T13:16:17.092Z,98565.75
2022-12-11T13:18:45.689Z,98570.31
2022-12-11T13:21:33.732Z,98574.66
2022-12-11T13:24:16.637Z,98572.47
2022-12-11T13:26:43.702Z,98568.06
2022-12-11T13:29:28.832Z,98574.03
2022-12-11T13:32:22.613Z,98554.50
2022-12-11T13:35:00.181Z,98565.31
2022-12-11T13:37:33.648Z,98577.97
2022-12-11T13:40:04.442Z,98584.16
2022-12-11T13:42:54.350Z,98580.41
2022-12-11T13:45:51.465Z,98580.06
2022-12-11T13:48:27.027Z,98578.78
2022-12-11T13:50:53.862Z,98565.09
2022-12-11T13:53:21.871Z,98570.69
2022-12-11T13:56:02.272Z,98573.44
2022-12-11T13:58:30.127Z,98571.75
2022-12-11T14:01:07.243Z,98576.34
2022-12-11T14:03:34.811Z,98562.72
2022-12-11T14:06:02.558Z,98570.81
2022-12-11T14:08:38.163Z,98564.03
2022-12-11T14:11:05.599Z,98569.44
2022-12-11T14:13:41.070Z,98567.06
2022-12-11T14:16:08.045Z,98574.63
2022-12-11T14:18:36.494Z,98556.06
2022-12-11T14:21:06.098Z,98571.09
2022-12-11T14:23:35.586Z,98574.56
2022-12-11T14:26:24.715Z,98574.88
2022-12-11T14:28:52.718Z,98567.22
2022-12-11T14:31:29.092Z,98568.50
2022-12-11T14:34:03.072Z,98558.91
2022-12-11T14:36:31.700Z,98566.47
2022-12-11T14:39:06.293Z,98554.28
2022-12-11T14:41:45.417Z,98559.09
2022-12-11T14:44:15.343Z,98581.91
2022-12-11T14:46:48.050Z,98568.38
2022-12-11T14:49:45.088Z,98576.88
2022-12-11T14:52:43.094Z,98589.66
2022-12-11T14:55:17.778Z,98591.69
2022-12-11T14:57:48.864Z,98595.06
2022-12-11T15:00:34.141Z,98591.84
2022-12-11T15:03:11.631Z,98592.78
2022-12-11T15:05:52.857Z,98602.31
2022-12-11T15:08:29.041Z,98589.97
2022-12-11T15:11:08.536Z,98591.31
2022-12-11T15:13:37.612Z,98580.94
2022-12-11T15:16:07.478Z,98593.13
2022-12-11T15:18:36.504Z,98571.50
2022-12-11T15:21:05.501Z,98598.56
2022-12-11T15:23:32.030Z,98579.38
2022-12-11T15:26:00.850Z,98601.72
2022-12-11T15:28:33.991Z,98598.31
2022-12-11T15:31:03.562Z,98605.97
2022-12-11T15:33:34.292Z,98600.69
2022-12-11T15:36:06.909Z,98598.38
2022-12-11T15:38:38.628Z,98593.41
2022-12-11T15:41:06.460Z,98585.00
2022-12-11T15:43:37.550Z,98577.00
2022-12-11T15:46:05.658Z,98588.06
2022-12-11T15:48:34.679Z,98590.78
2022-12-11T15:51:01.441Z,98591.53
2022-12-11T15:53:28.114Z,98591.63
2022-12-11T15:55:54.993Z,98575.59
2022-12-11T15:58:23.881Z,98590.13
2022-12-11T16:00:50.947Z,98575.06
2022-12-11T16:03:19.156Z,98593.88
2022-12-11T16:05:46.316Z,98605.09
2022-12-11T16:08:15.154Z,98607.78
2022-12-11T16:10:45.294Z,98606.22
2022-12-11T16:13:12.926Z,98605.41
2022-12-11T16:15:45.251Z,98611.50
2022-12-11T16:18:14.683Z,98610.03
2022-12-11T16:20:44.341Z,98618.56
2022-12-11T16:23:11.694Z,98618.44
2022-12-11T16:25:39.759Z,98608.38
2022-12-11T16:28:07.227Z,98612.38
2022-12-11T16:30:35.679Z,98613.41
2022-12-11T16:33:08.593Z,98615.94
2022-12-11T16:35:38.699Z,98619.88
2022-12-11T16:38:05.168Z,98604.66
2022-12-11T16:40:31.643Z,98614.13
2022-12-11T16:42:58.172Z,98599.84
2022-12-11T16:45:25.696Z,98610.03
2022-12-11T16:47:53.176Z,98611.75
2022-12-11T16:50:20.069Z,98616.09
2022-12-11T16:52:46.629Z,98623.81
2022-12-11T16:55:14.272Z,98615.91
2022-12-11T16:57:41.201Z,98610.03
2022-12-11T17:00:10.364Z,98606.81
2022-12-11T17:02:36.731Z,98608.56
2022-12-11T17:05:03.612Z,98611.84
2022-12-11T17:07:31.879Z,98613.50
2022-12-11T17:09:58.592Z,98605.75
2022-12-11T17:12:25.069Z,98599.53
2022-12-11T17:14:51.513Z,98604.03
2022-12-11T17:17:17.898Z,98604.03
2022-12-11T17:19:44.320Z,98606.91
2022-12-11T17:22:10.625Z,98616.34
2022-12-11T17:24:37.064Z,98616.28
2022-12-11T17:27:03.484Z,98594.13
2022-12-11T17:29:29.789Z,98622.88
2022-12-11T17:31:56.118Z,98631.38
2022-12-11T17:34:22.585Z,98625.66
2022-12-11T17:36:48.891Z,98612.72
2022-12-11T17:39:15.225Z,98608.56
2022-12-11T17:41:41.756Z,98619.69
2022-12-11T17:44:08.053Z,98623.00
2022-12-11T17:46:34.706Z,98629.97
2022-12-11T17:49:03.577Z,98622.28
2022-12-11T17:51:29.912Z,98626.13
2022-12-11T17:53:56.295Z,98623.81
2022-12-11T17:56:23.224Z,98609.44
2022-12-11T17:58:49.856Z,98624.53
2022-12-11T18:01:16.818Z,98626.56
2022-12-11T18:03:43.266Z,98628.22
2022-12-11T18:06:13.358Z,98639.59
2022-12-11T18:08:40.345Z,98632.84
2022-12-11T18:11:09.537Z,98640.41
2022-12-11T18:13:36.227Z,98624.97
2022-12-11T18:16:05.597Z,98639.50
2022-12-11T18:18:32.169Z,98627.50
2022-12-11T18:20:59.329Z,98636.03
2022-12-11T18:23:25.721Z,98620.97
2022-12-11T18:25:53.176Z,98640.41
2022-12-11T18:28:19.539Z,98635.50
2022-12-11T18:30:46.666Z,98638.88
2022-12-11T18:33:13.126Z,98633.94
2022-12-11T18:35:40.215Z,98642.56
2022-12-11T18:38:07.253Z,98643.16
2022-12-11T18:40:34.192Z,98639.88
2022-12-11T18:43:00.528Z,98638.91
2022-12-11T18:45:27.399Z,98638.97
2022-12-11T18:47:53.754Z,98641.72
2022-12-11T18:50:20.241Z,98641.78
2022-12-11T18:52:46.904Z,98636.84
2022-12-11T18:55:13.713Z,98649.81
2022-12-11T18:57:40.234Z,98648.91
2022-12-11T19:00:07.326Z,98640.34
2022-12-11T19:02:35.215Z,98641.31
2022-12-11T19:05:01.654Z,98643.03
2022-12-11T19:07:28.030Z,98643.06
2022-12-11T19:09:54.623Z,98645.56
2022-12-11T19:12:21.058Z,98636.28
2022-12-11T19:14:47.404Z,98622.91
2022-12-11T19:17:13.859Z,98641.41
2022-12-11T19:19:40.276Z,98634.50
2022-12-11T19:22:06.613Z,98632.09
2022-12-11T19:24:33.128Z,98642.28
2022-12-11T19:26:59.727Z,98638.88
2022-12-11T19:29:29.018Z,98638.03
2022-12-11T19:31:56.010Z,98636.22
2022-12-11T19:34:23.134Z,98644.59
2022-12-11T19:36:49.610Z,98645.47
2022-12-11T19:39:16.567Z,98640.41
2022-12-11T19:41:43.532Z,98630.25
2022-12-11T19:44:10.142Z,98624.09
2022-12-11T19:46:36.767Z,98634.22
2022-12-11T19:49:03.896Z,98620.56
2022-12-11T19:51:33.370Z,98629.00
2022-12-11T19:54:00.822Z,98625.72
2022-12-11T19:56:27.190Z,98632.59
2022-12-11T19:58:53.668Z,98621.53
2022-12-11T20:01:25.861Z,98636.78
2022-12-11T20:03:53.623Z,98617.41
2022-12-11T20:06:20.169Z,98636.75
2022-12-11T20:08:47.035Z,98623.25
2022-12-11T20:11:18.475Z,98633.22
2022-12-11T20:13:46.601Z,98626.41
2022-12-11T20:16:14.080Z,98629.00
2022-12-11T20:18:40.506Z,98634.06
2022-12-11T20:21:09.651Z,98632.50
2022-12-11T20:23:36.198Z,98638.47
2022-12-11T20:26:07.598Z,98631.84
2022-12-11T20:28:34.034Z,98634.41
2022-12-11T20:31:08.606Z,98636.78
2022-12-11T20:33:35.276Z,98632.41
2022-12-11T20:36:02.286Z,98624.94
2022-12-11T20:38:34.107Z,98643.69
2022-12-11T20:41:00.836Z,98623.25
2022-12-11T20:43:27.381Z,98634.13
2022-12-11T20:45:53.731Z,98618.94
2022-12-11T20:48:20.102Z,98632.41
2022-12-11T20:50:46.529Z,98632.50
2022-12-11T20:53:12.997Z,98628.91
2022-12-11T20:55:40.495Z,98639.25
2022-12-11T20:58:07.302Z,98624.91
2022-12-11T21:00:33.902Z,98632.59
2022-12-11T21:03:00.333Z,98623.34
2022-12-11T21:05:26.902Z,98623.34
2022-12-11T21:07:54.395Z,98622.31
2022-12-11T21:10:21.203Z,98624.06
2022-12-11T21:12:47.716Z,98617.97
2022-12-11T21:15:14.527Z,98619.63
2022-12-11T21:17:41.316Z,98625.44
2022-12-11T21:20:08.120Z,98616.91
2022-12-11T21:22:34.768Z,98618.66
2022-12-11T21:25:01.706Z,98621.19
2022-12-11T21:27:28.147Z,98611.19
2022-12-11T21:29:54.832Z,98627.97
2022-12-11T21:32:21.507Z,98616.94
2022-12-11T21:34:50.391Z,98632.41
2022-12-11T21:37:17.361Z,98636.50
2022-12-11T21:39:44.045Z,98632.47
2022-12-11T21:42:10.447Z,98626.47
2022-12-11T21:47:23.148Z,98614.47
2022-12-11T21:49:49.766Z,98627.28
2022-12-11T21:52:16.163Z,98636.59
2022-12-11T21:54:42.569Z,98629.75
2022-12-11T21:57:08.897Z,98645.19
2022-12-11T21:59:35.445Z,98638.56
2022-12-11T22:02:01.817Z,98636.94
2022-12-11T22:04:28.298Z,98636.97
2022-12-11T22:06:54.656Z,98637.72
2022-12-11T22:09:21.003Z,98636.25
2022-12-11T22:11:47.959Z,98626.09
2022-12-11T22:14:16.637Z,98633.75
2022-12-11T22:16:43.924Z,98643.59
2022-12-11T22:19:10.648Z,98643.63
2022-12-11T22:21:37.252Z,98647.03
2022-12-11T22:24:03.903Z,98640.97
2022-12-11T22:26:30.516Z,98637.50
2022-12-11T22:28:57.163Z,98615.28
2022-12-11T22:31:25.704Z,98611.88
2022-12-11T22:33:53.466Z,98637.06
2022-12-11T22:36:20.362Z,98640.53
2022-12-11T22:38:47.633Z,98619.78
2022-12-11T22:41:22.464Z,98645.25
2022-12-11T22:43:49.543Z,98641.06
2022-12-11T22:46:18.448Z,98636.75
2022-12-11T22:48:44.898Z,98644.47
2022-12-11T22:51:11.933Z,98636.41
2022-12-11T22:53:38.366Z,98631.59
2022-12-11T22:56:06.960Z,98640.78
2022-12-11T22:58:33.555Z,98643.69
2022-12-11T23:01:00.207Z,98633.63
2022-12-11T23:03:26.811Z,98609.28
2022-12-11T23:05:53.415Z,98634.84
2022-12-11T23:08:21.374Z,98639.97
2022-12-11T23:10:48.191Z,98640.69
2022-12-11T23:13:14.541Z,98635.69
2022-12-11T23:15:41.037Z,98623.88
2022-12-11T23:18:07.699Z,98641.09
2022-12-11T23:20:34.191Z,98640.25
2022-12-11T23:23:00.771Z,98646.16
2022-12-11T23:25:27.204Z,98629.22
2022-12-11T23:27:54.417Z,98647.25
2022-12-11T23:30:21.285Z,98635.31
2022-12-11T23:32:47.670Z,98634.88
2022-12-11T23:35:14.334Z,98639.19
2022-12-11T23:37:40.951Z,98630.06
2022-12-11T23:40:08.398Z,98637.06
2022-12-11T23:42:35.404Z,98636.06
2022-12-11T23:45:02.319Z,98642.91
2022-12-11T23:47:28.669Z,98645.81
2022-12-11T23:49:55.154Z,98650.22
2022-12-11T23:52:21.575Z,98658.00
2022-12-11T23:54:47.939Z,98649.63
2022-12-11T23:57:14.324Z,98651.38
2022-12-11T23:59:40.642Z,98657.50
